createdAt,value
2023-12-30T00:01:04.313Z,2.67
2023-12-30T00:03:31.575Z,2.30
2023-12-30T00:05:58.697Z,2.53
2023-12-30T00:08:25.883Z,2.10
2023-12-30T00:10:53.534Z,2.33
2023-12-30T00:13:20.755Z,2.03
2023-12-30T00:15:47.809Z,2.20
2023-12-30T00:18:16.294Z,2.30
2023-12-30T00:20:43.483Z,2.20
2023-12-30T00:23:10.625Z,2.60
2023-12-30T00:25:37.805Z,2.35
2023-12-30T00:28:04.969Z,2.40
2023-12-30T00:30:32.131Z,2.55
2023-12-30T00:32:59.560Z,2.00
2023-12-30T00:35:26.814Z,2.28
2023-12-30T00:37:54.642Z,1.77
2023-12-30T00:40:26.679Z,2.13
2023-12-30T00:42:54.715Z,2.33
2023-12-30T00:45:22.300Z,2.30
2023-12-30T00:47:49.591Z,1.80
2023-12-30T00:50:17.134Z,1.95
2023-12-30T00:52:44.193Z,2.00
2023-12-30T00:55:11.405Z,2.20
2023-12-30T00:57:38.480Z,2.10
2023-12-30T01:00:07.140Z,2.00
2023-12-30T01:02:34.148Z,2.13
2023-12-30T01:05:01.261Z,1.95
2023-12-30T01:07:28.484Z,2.00
2023-12-30T01:09:55.939Z,2.30
2023-12-30T01:12:22.942Z,2.25
2023-12-30T01:14:50.109Z,1.90
2023-12-30T01:17:17.213Z,2.10
2023-12-30T01:19:44.517Z,2.45
2023-12-30T01:22:12.332Z,1.88
2023-12-30T01:24:39.427Z,2.58
2023-12-30T01:27:06.444Z,2.25
2023-12-30T01:29:33.471Z,2.30
2023-12-30T01:32:00.460Z,2.20
2023-12-30T01:34:28.018Z,1.85
2023-12-30T01:36:55.918Z,1.98
2023-12-30T01:39:23.183Z,2.30
2023-12-30T01:41:52.912Z,2.50
2023-12-30T01:44:20.272Z,2.00
2023-12-30T01:46:47.798Z,2.03
2023-12-30T01:49:15.340Z,2.30
2023-12-30T01:51:42.631Z,2.15
2023-12-30T01:54:10.612Z,2.63
2023-12-30T01:56:37.857Z,2.38
2023-12-30T01:59:09.697Z,2.28
2023-12-30T02:01:37.368Z,2.45
2023-12-30T02:04:04.999Z,2.30
2023-12-30T02:06:32.166Z,1.90
2023-12-30T02:08:59.386Z,2.00
2023-12-30T02:11:26.765Z,2.38
2023-12-30T02:13:55.572Z,2.20
2023-12-30T02:16:22.631Z,2.50
2023-12-30T02:18:49.960Z,2.00
2023-12-30T02:21:17.172Z,2.63
2023-12-30T02:23:44.388Z,2.40
2023-12-30T02:26:11.406Z,2.20
2023-12-30T02:28:38.553Z,2.50
2023-12-30T02:31:05.916Z,2.30
2023-12-30T02:33:33.226Z,2.13
2023-12-30T02:36:00.249Z,2.20
2023-12-30T02:38:27.251Z,2.65
2023-12-30T02:40:54.389Z,2.40
2023-12-30T02:43:21.531Z,2.13
2023-12-30T02:45:48.596Z,2.33
2023-12-30T02:48:16.115Z,2.30
2023-12-30T02:50:43.235Z,2.25
2023-12-30T02:53:10.235Z,2.30
2023-12-30T02:55:37.294Z,2.20
2023-12-30T02:58:04.547Z,2.28
2023-12-30T03:00:31.682Z,2.40
2023-12-30T03:02:59.894Z,2.50
2023-12-30T03:05:31.835Z,2.17
2023-12-30T03:07:59.944Z,2.28
2023-12-30T03:10:27.156Z,2.08
2023-12-30T03:12:55.053Z,2.00
2023-12-30T03:15:22.203Z,2.05
2023-12-30T03:17:50.364Z,2.53
2023-12-30T03:20:17.561Z,2.70
2023-12-30T03:22:44.599Z,2.40
2023-12-30T03:25:11.669Z,2.13
2023-12-30T03:27:38.726Z,2.10
2023-12-30T03:30:07.133Z,2.47
2023-12-30T03:32:34.431Z,2.17
2023-12-30T03:35:01.636Z,2.10
2023-12-30T03:37:28.803Z,2.33
2023-12-30T03:39:58.741Z,2.28
2023-12-30T03:42:28.363Z,2.63
2023-12-30T03:44:55.606Z,2.33
2023-12-30T03:49:49.829Z,2.13
2023-12-30T03:52:17.024Z,2.45
2023-12-30T03:54:45.610Z,2.70
2023-12-30T03:57:15.163Z,2.90
2023-12-30T03:59:42.241Z,2.88
2023-12-30T04:02:09.448Z,2.45
2023-12-30T04:04:37.163Z,2.60
2023-12-30T04:07:04.475Z,2.50
2023-12-30T04:09:31.578Z,2.83
2023-12-30T04:11:58.909Z,2.88
2023-12-30T04:14:25.990Z,3.10
2023-12-30T04:16:53.167Z,2.80
2023-12-30T04:19:20.324Z,2.83
2023-12-30T04:21:47.476Z,2.42
2023-12-30T04:24:14.712Z,2.50
2023-12-30T04:26:42.478Z,3.70
2023-12-30T04:29:09.582Z,2.42
2023-12-30T04:31:36.963Z,2.55
2023-12-30T04:34:04.337Z,2.50
2023-12-30T04:36:31.506Z,2.60
2023-12-30T04:38:58.605Z,2.22
2023-12-30T04:41:25.873Z,3.38
2023-12-30T04:43:53.029Z,2.47
2023-12-30T04:46:20.090Z,2.65
2023-12-30T04:48:47.298Z,2.72
2023-12-30T04:51:14.709Z,2.47
2023-12-30T04:53:41.786Z,2.83
2023-12-30T04:56:15.491Z,2.83
2023-12-30T04:58:42.659Z,2.40
2023-12-30T05:01:09.928Z,2.63
2023-12-30T05:03:37.359Z,2.70
2023-12-30T05:06:04.663Z,2.60
2023-12-30T05:08:32.840Z,2.70
2023-12-30T05:11:00.092Z,2.60
2023-12-30T05:13:27.210Z,2.85
2023-12-30T05:15:54.583Z,2.88
2023-12-30T05:18:21.780Z,2.83
2023-12-30T05:20:49.374Z,3.00
2023-12-30T05:23:16.702Z,2.83
2023-12-30T05:25:44.283Z,2.70
2023-12-30T05:28:11.413Z,3.08
2023-12-30T05:30:38.496Z,2.85
2023-12-30T05:33:06.176Z,3.00
2023-12-30T05:35:34.000Z,2.53
2023-12-30T05:38:01.046Z,2.58
2023-12-30T05:40:28.195Z,2.53
2023-12-30T05:42:55.304Z,2.58
2023-12-30T05:45:22.407Z,2.88
2023-12-30T05:47:49.468Z,2.88
2023-12-30T05:50:16.513Z,2.95
2023-12-30T05:52:43.558Z,2.80
2023-12-30T05:55:10.715Z,3.40
2023-12-30T05:57:37.889Z,2.97
2023-12-30T06:00:05.771Z,2.75
2023-12-30T06:02:39.613Z,2.80
2023-12-30T06:05:07.237Z,2.40
2023-12-30T06:07:34.595Z,2.55
2023-12-30T06:10:01.909Z,2.85
2023-12-30T06:12:28.997Z,3.08
2023-12-30T06:14:56.326Z,2.83
2023-12-30T06:17:23.383Z,2.45
2023-12-30T06:19:51.714Z,2.42
2023-12-30T06:22:18.782Z,2.72
2023-12-30T06:24:45.906Z,3.05
2023-12-30T06:27:13.027Z,3.00
2023-12-30T06:29:40.177Z,2.88
2023-12-30T06:32:07.764Z,2.83
2023-12-30T06:34:35.987Z,2.58
2023-12-30T06:37:03.302Z,2.88
2023-12-30T06:39:30.312Z,2.53
2023-12-30T06:42:01.625Z,2.50
2023-12-30T06:44:29.262Z,2.97
2023-12-30T06:46:56.683Z,2.58
2023-12-30T06:49:23.777Z,2.92
2023-12-30T06:51:50.951Z,2.90
2023-12-30T06:54:18.066Z,2.78
2023-12-30T06:56:45.389Z,2.47
2023-12-30T06:59:15.477Z,2.88
2023-12-30T07:01:42.869Z,2.67
2023-12-30T07:04:10.800Z,2.85
2023-12-30T07:06:38.040Z,2.60
2023-12-30T07:09:05.076Z,2.60
2023-12-30T07:11:32.386Z,2.70
2023-12-30T07:13:59.525Z,2.80
2023-12-30T07:16:26.659Z,3.00
2023-12-30T07:18:53.809Z,2.40
2023-12-30T07:21:21.092Z,2.97
2023-12-30T07:23:48.380Z,2.55
2023-12-30T07:26:15.416Z,3.03
2023-12-30T07:28:42.601Z,2.60
2023-12-30T07:31:09.885Z,3.05
2023-12-30T07:33:37.145Z,2.50
2023-12-30T07:36:08.883Z,2.90
2023-12-30T07:38:35.982Z,3.08
2023-12-30T07:41:03.365Z,3.35
2023-12-30T07:43:30.419Z,2.58
2023-12-30T07:45:58.730Z,2.90
2023-12-30T07:48:25.958Z,2.70
2023-12-30T07:50:53.078Z,2.70
2023-12-30T07:53:20.191Z,2.92
2023-12-30T07:55:47.251Z,2.70
2023-12-30T07:58:14.840Z,3.22
2023-12-30T08:00:41.930Z,2.90
2023-12-30T08:03:09.010Z,2.90
2023-12-30T08:05:36.261Z,2.92
2023-12-30T08:08:04.759Z,2.55
2023-12-30T08:10:33.802Z,2.45
2023-12-30T08:13:00.990Z,2.47
2023-12-30T08:15:29.309Z,2.88
2023-12-30T08:17:56.592Z,2.55
2023-12-30T08:20:23.641Z,2.70
2023-12-30T08:22:51.465Z,2.97
2023-12-30T08:25:18.686Z,2.80
2023-12-30T08:27:45.848Z,2.90
2023-12-30T08:30:13.257Z,3.03
2023-12-30T08:32:40.317Z,3.00
2023-12-30T08:35:09.065Z,2.72
2023-12-30T08:37:37.344Z,2.92
2023-12-30T08:40:07.399Z,2.70
2023-12-30T08:42:35.854Z,3.63
2023-12-30T08:45:05.871Z,3.20
2023-12-30T08:47:34.641Z,2.70
2023-12-30T08:50:02.525Z,3.22
2023-12-30T08:52:29.804Z,2.75
2023-12-30T08:54:57.335Z,3.15
2023-12-30T08:57:25.831Z,2.95
2023-12-30T08:59:53.007Z,2.83
2023-12-30T09:02:20.065Z,2.50
2023-12-30T09:04:47.145Z,3.25
2023-12-30T09:07:14.953Z,3.10
2023-12-30T09:09:42.343Z,2.72
2023-12-30T09:12:09.490Z,2.97
2023-12-30T09:14:37.001Z,2.95
2023-12-30T09:17:04.111Z,2.92
2023-12-30T09:19:31.776Z,2.85
2023-12-30T09:21:59.084Z,3.25
2023-12-30T09:24:26.286Z,2.40
2023-12-30T09:26:53.380Z,2.70
2023-12-30T09:29:20.517Z,2.80
2023-12-30T09:31:47.681Z,2.47
2023-12-30T09:34:19.349Z,2.65
2023-12-30T09:36:50.567Z,2.42
2023-12-30T09:39:17.616Z,2.53
2023-12-30T09:41:44.591Z,2.60
2023-12-30T09:44:13.619Z,2.08
2023-12-30T09:46:41.768Z,2.40
2023-12-30T09:49:09.904Z,2.78
2023-12-30T09:51:37.073Z,2.60
2023-12-30T09:54:04.471Z,2.50
2023-12-30T09:56:32.929Z,2.50
2023-12-30T09:59:01.968Z,2.42
2023-12-30T10:01:31.182Z,2.60
2023-12-30T10:03:58.597Z,3.30
2023-12-30T10:06:26.678Z,3.00
2023-12-30T10:08:54.742Z,3.15
2023-12-30T10:11:21.882Z,3.00
2023-12-30T10:13:49.026Z,2.70
2023-12-30T10:16:16.457Z,2.83
2023-12-30T10:18:44.307Z,3.10
2023-12-30T10:21:11.581Z,3.05
2023-12-30T10:23:39.150Z,3.17
2023-12-30T10:26:06.244Z,3.30
2023-12-30T10:28:33.590Z,3.20
2023-12-30T10:31:03.437Z,3.45
2023-12-30T10:33:31.730Z,3.13
2023-12-30T10:35:58.979Z,3.30
2023-12-30T10:38:27.791Z,4.32
2023-12-30T10:40:55.860Z,4.10
2023-12-30T10:43:23.223Z,3.50
2023-12-30T10:46:00.950Z,4.32
2023-12-30T10:48:34.326Z,5.03
2023-12-30T10:51:02.706Z,5.53
2023-12-30T10:53:41.164Z,5.43
2023-12-30T10:56:10.886Z,5.50
2023-12-30T10:58:41.470Z,5.38
2023-12-30T11:01:09.729Z,5.95
2023-12-30T11:03:37.297Z,6.03
2023-12-30T11:06:57.148Z,5.47
2023-12-30T11:09:31.032Z,5.53
2023-12-30T11:12:03.114Z,5.22
2023-12-30T11:14:30.453Z,5.03
2023-12-30T11:16:58.682Z,4.90
2023-12-30T11:19:33.749Z,4.93
2023-12-30T11:22:07.345Z,5.50
2023-12-30T11:24:35.350Z,5.07
2023-12-30T11:27:02.428Z,4.90
2023-12-30T11:29:30.508Z,4.80
2023-12-30T11:32:00.372Z,4.95
2023-12-30T11:34:27.978Z,4.95
2023-12-30T11:36:59.397Z,4.63
2023-12-30T11:39:32.278Z,4.65
2023-12-30T11:42:01.099Z,4.63
2023-12-30T11:44:31.380Z,4.75
2023-12-30T11:46:59.719Z,4.70
2023-12-30T11:49:27.666Z,4.53
2023-12-30T11:52:06.028Z,4.20
2023-12-30T11:54:34.146Z,3.72
2023-12-30T11:57:01.873Z,3.90
2023-12-30T11:59:29.346Z,3.70
2023-12-30T12:02:15.817Z,3.35
2023-12-30T12:04:43.982Z,3.50
2023-12-30T12:07:12.229Z,3.70
2023-12-30T12:09:42.046Z,3.40
2023-12-30T12:12:10.676Z,3.47
2023-12-30T12:14:38.300Z,3.45
2023-12-30T12:17:09.260Z,3.75
2023-12-30T12:19:38.904Z,3.60
2023-12-30T12:22:06.435Z,3.20
2023-12-30T12:24:33.842Z,3.10
2023-12-30T12:27:00.940Z,3.85
2023-12-30T12:29:28.101Z,3.25
2023-12-30T12:31:56.044Z,3.53
2023-12-30T12:34:32.503Z,3.65
2023-12-30T12:36:59.723Z,3.65
2023-12-30T12:39:26.790Z,3.92
2023-12-30T12:41:54.088Z,3.72
2023-12-30T12:44:21.157Z,3.85
2023-12-30T12:46:48.275Z,3.78
2023-12-30T12:49:19.197Z,4.07
2023-12-30T12:51:46.983Z,3.83
2023-12-30T12:54:14.019Z,4.40
2023-12-30T12:56:41.731Z,5.25
2023-12-30T12:59:08.964Z,4.75
2023-12-30T13:01:37.429Z,5.22
2023-12-30T13:04:05.265Z,4.32
2023-12-30T13:06:32.563Z,4.72
2023-12-30T13:09:01.499Z,4.65
2023-12-30T13:11:28.884Z,4.10
2023-12-30T13:13:57.025Z,4.40
2023-12-30T13:16:25.444Z,4.60
2023-12-30T13:18:53.532Z,4.68
2023-12-30T13:21:20.925Z,4.53
2023-12-30T13:23:50.657Z,4.55
2023-12-30T13:26:19.715Z,4.60
2023-12-30T13:28:47.327Z,4.20
2023-12-30T13:31:18.522Z,5.00
2023-12-30T13:33:45.926Z,4.57
2023-12-30T13:36:13.705Z,5.13
2023-12-30T13:38:44.743Z,4.55
2023-12-30T13:41:12.110Z,4.80
2023-12-30T13:43:39.360Z,5.00
2023-12-30T13:46:25.083Z,4.88
2023-12-30T13:49:10.560Z,6.22
2023-12-30T13:51:38.879Z,4.83
2023-12-30T13:54:06.646Z,4.57
2023-12-30T13:56:36.978Z,4.68
2023-12-30T13:59:09.796Z,5.15
2023-12-30T14:01:38.389Z,5.03
2023-12-30T14:04:08.522Z,5.18
2023-12-30T14:06:39.267Z,5.18
2023-12-30T14:09:15.520Z,5.57
2023-12-30T14:11:48.604Z,5.05
2023-12-30T14:14:16.511Z,5.25
2023-12-30T14:16:45.644Z,5.30
2023-12-30T14:19:14.391Z,5.28
2023-12-30T14:21:43.218Z,5.55
2023-12-30T14:24:12.888Z,5.18
2023-12-30T14:26:40.785Z,5.53
2023-12-30T14:29:07.994Z,5.53
2023-12-30T14:31:36.333Z,6.35
2023-12-30T14:34:04.449Z,6.68
2023-12-30T14:36:31.806Z,6.53
2023-12-30T14:39:00.765Z,6.38
2023-12-30T14:41:27.914Z,7.10
2023-12-30T14:43:55.020Z,7.30
2023-12-30T14:46:22.197Z,6.53
2023-12-30T14:48:49.374Z,7.53
2023-12-30T14:51:17.365Z,7.00
2023-12-30T14:53:44.981Z,7.55
2023-12-30T14:56:12.352Z,7.40
2023-12-30T14:58:39.498Z,7.40
2023-12-30T15:01:08.460Z,6.95
2023-12-30T15:03:35.618Z,7.25
2023-12-30T15:06:04.050Z,7.38
2023-12-30T15:08:33.765Z,6.70
2023-12-30T15:11:01.511Z,7.38
2023-12-30T15:13:28.794Z,7.57
2023-12-30T15:15:55.934Z,7.05
2023-12-30T15:18:23.232Z,8.35
2023-12-30T15:20:50.523Z,7.40
2023-12-30T15:23:18.206Z,8.02
2023-12-30T15:25:45.685Z,8.63
2023-12-30T15:28:13.476Z,8.60
2023-12-30T15:30:40.808Z,7.88
2023-12-30T15:33:08.247Z,8.27
2023-12-30T15:35:35.935Z,8.30
2023-12-30T15:38:03.255Z,9.25
2023-12-30T15:40:30.459Z,8.63
2023-12-30T15:42:57.757Z,8.35
2023-12-30T15:45:24.937Z,8.43
2023-12-30T15:47:52.322Z,8.27
2023-12-30T15:50:19.684Z,8.45
2023-12-30T15:52:46.886Z,9.10
2023-12-30T15:55:15.233Z,8.73
2023-12-30T15:57:42.545Z,8.63
2023-12-30T16:00:11.165Z,8.95
2023-12-30T16:02:38.790Z,9.05
2023-12-30T16:05:06.342Z,8.48
2023-12-30T16:07:33.536Z,8.82
2023-12-30T16:10:00.903Z,8.68
2023-12-30T16:12:28.122Z,8.65
2023-12-30T16:14:55.128Z,8.68
2023-12-30T16:17:22.182Z,8.45
2023-12-30T16:19:49.486Z,8.48
2023-12-30T16:22:17.051Z,8.63
2023-12-30T16:24:44.058Z,7.80
2023-12-30T16:27:11.739Z,8.00
2023-12-30T16:29:43.425Z,7.68
2023-12-30T16:32:10.828Z,7.72
2023-12-30T16:34:38.242Z,7.95
2023-12-30T16:37:06.160Z,8.13
2023-12-30T16:39:33.231Z,7.88
2023-12-30T16:42:00.240Z,7.55
2023-12-30T16:44:27.281Z,7.30
2023-12-30T16:46:54.371Z,8.35
2023-12-30T16:49:21.592Z,8.32
2023-12-30T16:51:48.676Z,9.45
2023-12-30T16:54:15.806Z,9.73
2023-12-30T16:56:43.005Z,11.40
2023-12-30T16:59:10.140Z,11.85
2023-12-30T17:01:37.478Z,11.73
2023-12-30T17:04:04.993Z,11.18
2023-12-30T17:06:33.862Z,10.35
2023-12-30T17:09:02.204Z,10.25
2023-12-30T17:11:29.280Z,9.35
2023-12-30T17:13:56.706Z,8.48
2023-12-30T17:16:23.935Z,8.70
2023-12-30T17:18:51.117Z,8.40
2023-12-30T17:21:18.193Z,8.60
2023-12-30T17:23:45.638Z,8.82
2023-12-30T17:26:13.027Z,8.30
2023-12-30T17:28:40.142Z,7.22
2023-12-30T17:31:09.358Z,7.60
2023-12-30T17:33:36.502Z,7.10
2023-12-30T17:36:04.246Z,7.00
2023-12-30T17:38:31.369Z,8.10
2023-12-30T17:40:59.441Z,8.20
2023-12-30T17:43:26.537Z,9.52
2023-12-30T17:45:53.595Z,10.10
2023-12-30T17:48:20.754Z,10.50
2023-12-30T17:50:47.853Z,9.50
2023-12-30T17:53:14.951Z,9.07
2023-12-30T17:55:42.265Z,8.45
2023-12-30T17:58:09.723Z,8.18
2023-12-30T18:00:37.029Z,7.13
2023-12-30T18:03:07.168Z,7.75
2023-12-30T18:05:34.395Z,6.90
2023-12-30T18:08:01.563Z,7.38
2023-12-30T18:10:28.634Z,7.07
2023-12-30T18:12:55.704Z,6.72
2023-12-30T18:15:22.855Z,6.95
2023-12-30T18:17:49.993Z,7.13
2023-12-30T18:20:19.132Z,6.25
2023-12-30T18:22:48.054Z,6.63
2023-12-30T18:25:15.323Z,5.80
2023-12-30T18:27:42.606Z,5.75
2023-12-30T18:30:11.573Z,5.82
2023-12-30T18:32:39.114Z,5.82
2023-12-30T18:35:07.160Z,5.25
2023-12-30T18:37:35.322Z,4.68
2023-12-30T18:40:04.773Z,5.10
2023-12-30T18:42:32.455Z,4.57
2023-12-30T18:44:59.702Z,4.93
2023-12-30T18:47:27.020Z,5.05
2023-12-30T18:49:54.233Z,4.70
2023-12-30T18:52:22.135Z,4.40
2023-12-30T18:54:49.525Z,4.22
2023-12-30T18:57:17.051Z,4.50
2023-12-30T18:59:44.377Z,4.22
2023-12-30T19:02:12.929Z,4.55
2023-12-30T19:04:49.220Z,4.25
2023-12-30T19:07:16.488Z,3.65
2023-12-30T19:09:43.711Z,3.85
2023-12-30T19:12:10.938Z,3.42
2023-12-30T19:14:38.035Z,3.60
2023-12-30T19:17:05.391Z,3.53
2023-12-30T19:19:32.541Z,3.13
2023-12-30T19:21:59.966Z,3.50
2023-12-30T19:24:27.385Z,3.10
2023-12-30T19:26:54.526Z,3.30
2023-12-30T19:29:21.788Z,3.13
2023-12-30T19:31:48.937Z,3.25
2023-12-30T19:34:17.974Z,3.17
2023-12-30T19:36:45.668Z,4.57
2023-12-30T19:39:13.941Z,3.95
2023-12-30T19:42:01.349Z,4.03
2023-12-30T19:44:28.926Z,4.03
2023-12-30T19:46:56.036Z,4.65
2023-12-30T19:49:23.115Z,4.70
2023-12-30T19:51:50.077Z,5.55
2023-12-30T19:54:17.281Z,5.13
2023-12-30T19:56:44.916Z,4.82
2023-12-30T19:59:12.067Z,4.95
2023-12-30T20:01:39.564Z,3.85
2023-12-30T20:04:06.846Z,3.97
2023-12-30T20:06:36.249Z,3.78
2023-12-30T20:09:03.330Z,4.07
2023-12-30T20:11:30.748Z,3.95
2023-12-30T20:13:57.900Z,4.53
2023-12-30T20:16:25.091Z,4.72
2023-12-30T20:18:52.413Z,4.68
2023-12-30T20:21:19.493Z,4.65
2023-12-30T20:23:47.119Z,5.22
2023-12-30T20:26:14.390Z,4.22
2023-12-30T20:28:41.584Z,4.40
2023-12-30T20:31:09.103Z,4.82
2023-12-30T20:33:37.366Z,5.35
2023-12-30T20:36:06.900Z,4.85
2023-12-30T20:38:35.434Z,5.25
2023-12-30T20:41:02.474Z,4.95
2023-12-30T20:43:29.653Z,5.50
2023-12-30T20:45:57.076Z,5.53
2023-12-30T20:48:24.415Z,5.95
2023-12-30T20:50:51.900Z,5.80
2023-12-30T20:53:18.908Z,6.32
2023-12-30T20:55:45.946Z,5.80
2023-12-30T20:58:13.833Z,5.60
2023-12-30T21:00:41.100Z,5.55
2023-12-30T21:03:08.275Z,5.78
2023-12-30T21:05:35.512Z,5.55
2023-12-30T21:08:02.627Z,5.10
2023-12-30T21:10:31.562Z,5.57
2023-12-30T21:12:58.690Z,4.60
2023-12-30T21:15:26.410Z,5.75
2023-12-30T21:17:55.826Z,5.70
2023-12-30T21:20:23.078Z,5.80
2023-12-30T21:22:50.246Z,5.40
2023-12-30T21:25:23.762Z,5.30
2023-12-30T21:27:54.137Z,5.75
2023-12-30T21:30:23.107Z,5.90
2023-12-30T21:32:50.996Z,5.88
2023-12-30T21:35:20.123Z,5.38
2023-12-30T21:37:48.445Z,5.47
2023-12-30T21:40:18.029Z,6.15
2023-12-30T21:42:45.337Z,5.50
2023-12-30T21:45:12.514Z,5.15
2023-12-30T21:47:39.649Z,5.03
2023-12-30T21:50:08.311Z,5.53
2023-12-30T21:52:38.646Z,5.05
2023-12-30T21:55:06.893Z,5.05
2023-12-30T21:57:34.165Z,4.82
2023-12-30T22:00:01.949Z,4.95
2023-12-30T22:02:31.439Z,5.22
2023-12-30T22:04:58.789Z,4.95
2023-12-30T22:07:25.825Z,4.60
2023-12-30T22:09:53.200Z,4.43
2023-12-30T22:12:20.212Z,5.00
2023-12-30T22:14:47.382Z,5.03
2023-12-30T22:17:15.966Z,4.80
2023-12-30T22:19:43.044Z,4.82
2023-12-30T22:22:10.192Z,4.65
2023-12-30T22:24:37.291Z,4.85
2023-12-30T22:27:04.916Z,4.28
2023-12-30T22:29:31.926Z,4.35
2023-12-30T22:31:59.430Z,4.28
2023-12-30T22:34:26.600Z,4.40
2023-12-30T22:36:53.784Z,3.80
2023-12-30T22:39:21.073Z,3.90
2023-12-30T22:41:48.123Z,3.70
2023-12-30T22:44:15.141Z,4.22
2023-12-30T22:46:43.792Z,4.25
2023-12-30T22:49:12.850Z,4.22
2023-12-30T22:51:51.639Z,3.60
2023-12-30T22:54:19.147Z,3.50
2023-12-30T22:56:46.695Z,3.85
2023-12-30T22:59:19.096Z,3.65
2023-12-30T23:01:46.270Z,3.78
2023-12-30T23:04:14.119Z,3.22
2023-12-30T23:06:41.437Z,3.33
2023-12-30T23:09:08.515Z,3.42
2023-12-30T23:11:35.544Z,3.28
2023-12-30T23:14:02.562Z,3.05
2023-12-30T23:16:29.887Z,3.33
2023-12-30T23:18:57.558Z,3.05
2023-12-30T23:21:24.911Z,3.33
2023-12-30T23:23:52.013Z,2.85
2023-12-30T23:26:19.241Z,3.08
2023-12-30T23:28:46.483Z,3.33
2023-12-30T23:31:13.854Z,3.15
2023-12-30T23:33:42.064Z,3.35
2023-12-30T23:36:13.223Z,3.05
2023-12-30T23:38:40.215Z,3.08
2023-12-30T23:41:07.410Z,2.90
2023-12-30T23:43:34.621Z,2.83
2023-12-30T23:46:01.778Z,2.97
2023-12-30T23:48:28.809Z,3.00
2023-12-30T23:50:55.885Z,2.58
2023-12-30T23:53:23.083Z,2.75
2023-12-30T23:55:51.202Z,2.78
2023-12-30T23:58:18.405Z,2.92
